sensor_id;sensor_type;location;lat;lon;timestamp;pressure;altitude;pressure_sealevel;temperature;humidity
64698;BME280;51124;53.394;-6.294;2024-02-28T00:00:52;101153.95;;;18.70;11.28
64698;BME280;51124;53.394;-6.294;2024-02-28T00:03:20;101144.27;;;19.02;11.09
64698;BME280;51124;53.394;-6.294;2024-02-28T00:05:48;101140.97;;;18.16;11.24
64698;BME280;51124;53.394;-6.294;2024-02-28T00:08:15;101139.58;;;16.76;10.94
64698;BME280;51124;53.394;-6.294;2024-02-28T00:10:43;101136.62;;;16.76;10.60
64698;BME280;51124;53.394;-6.294;2024-02-28T00:13:10;101131.47;;;16.73;10.12
64698;BME280;51124;53.394;-6.294;2024-02-28T00:15:37;101127.46;;;17.11;9.84
64698;BME280;51124;53.394;-6.294;2024-02-28T00:18:05;101135.21;;;16.60;10.08
64698;BME280;51124;53.394;-6.294;2024-02-28T00:20:33;101130.67;;;16.40;9.87
64698;BME280;51124;53.394;-6.294;2024-02-28T00:23:00;101121.63;;;15.61;9.68
64698;BME280;51124;53.394;-6.294;2024-02-28T00:25:27;101112.67;;;16.12;9.64
64698;BME280;51124;53.394;-6.294;2024-02-28T00:27:55;101118.66;;;16.44;9.56
64698;BME280;51124;53.394;-6.294;2024-02-28T00:30:22;101119.02;;;16.57;9.45
64698;BME280;51124;53.394;-6.294;2024-02-28T00:32:50;101114.73;;;16.67;9.00
64698;BME280;51124;53.394;-6.294;2024-02-28T00:35:17;101108.96;;;16.72;9.25
64698;BME280;51124;53.394;-6.294;2024-02-28T00:37:44;101107.44;;;16.44;9.35
64698;BME280;51124;53.394;-6.294;2024-02-28T00:40:12;101106.89;;;16.01;9.26
64698;BME280;51124;53.394;-6.294;2024-02-28T00:42:40;101112.65;;;15.65;9.19
64698;BME280;51124;53.394;-6.294;2024-02-28T00:45:08;101111.09;;;16.35;9.17
64698;BME280;51124;53.394;-6.294;2024-02-28T00:47:36;101100.96;;;17.13;9.07
64698;BME280;51124;53.394;-6.294;2024-02-28T00:50:04;101091.13;;;16.78;8.96
64698;BME280;51124;53.394;-6.294;2024-02-28T00:52:31;101096.53;;;15.98;8.87
64698;BME280;51124;53.394;-6.294;2024-02-28T00:54:59;101098.74;;;15.72;8.98
64698;BME280;51124;53.394;-6.294;2024-02-28T00:57:26;101102.43;;;16.34;9.00
64698;BME280;51124;53.394;-6.294;2024-02-28T00:59:53;101102.17;;;15.99;8.95
64698;BME280;51124;53.394;-6.294;2024-02-28T01:02:21;101098.68;;;16.11;9.23
64698;BME280;51124;53.394;-6.294;2024-02-28T01:04:48;101104.59;;;16.16;9.17
64698;BME280;51124;53.394;-6.294;2024-02-28T01:07:15;101100.60;;;15.56;9.13
64698;BME280;51124;53.394;-6.294;2024-02-28T01:09:43;101102.61;;;15.96;8.87
64698;BME280;51124;53.394;-6.294;2024-02-28T01:12:10;101119.13;;;15.72;8.94
64698;BME280;51124;53.394;-6.294;2024-02-28T01:14:37;101105.65;;;16.35;8.85
64698;BME280;51124;53.394;-6.294;2024-02-28T01:17:05;101103.05;;;15.91;9.12
64698;BME280;51124;53.394;-6.294;2024-02-28T01:19:32;101095.76;;;15.29;9.13
64698;BME280;51124;53.394;-6.294;2024-02-28T01:22:00;101094.38;;;15.21;9.01
64698;BME280;51124;53.394;-6.294;2024-02-28T01:24:27;101082.03;;;15.70;9.07
64698;BME280;51124;53.394;-6.294;2024-02-28T01:26:55;101080.36;;;15.95;8.94
64698;BME280;51124;53.394;-6.294;2024-02-28T01:29:22;101089.56;;;15.54;9.07
64698;BME280;51124;53.394;-6.294;2024-02-28T01:31:49;101092.88;;;15.65;8.92
64698;BME280;51124;53.394;-6.294;2024-02-28T01:34:17;101089.13;;;15.77;8.94
64698;BME280;51124;53.394;-6.294;2024-02-28T01:36:44;101089.36;;;16.44;9.10
64698;BME280;51124;53.394;-6.294;2024-02-28T01:39:11;101090.09;;;14.67;9.23
64698;BME280;51124;53.394;-6.294;2024-02-28T01:41:39;101085.39;;;16.28;9.06
64698;BME280;51124;53.394;-6.294;2024-02-28T01:44:06;101095.46;;;16.62;8.87
64698;BME280;51124;53.394;-6.294;2024-02-28T01:46:34;101088.78;;;15.74;8.97
64698;BME280;51124;53.394;-6.294;2024-02-28T01:49:01;101070.27;;;16.23;8.98
64698;BME280;51124;53.394;-6.294;2024-02-28T01:51:29;101076.45;;;16.34;8.78
64698;BME280;51124;53.394;-6.294;2024-02-28T01:53:57;101075.70;;;16.00;9.13
64698;BME280;51124;53.394;-6.294;2024-02-28T01:56:25;101084.46;;;15.71;9.00
64698;BME280;51124;53.394;-6.294;2024-02-28T01:58:53;101078.88;;;15.94;9.02
64698;BME280;51124;53.394;-6.294;2024-02-28T02:01:21;101072.09;;;15.73;8.94
64698;BME280;51124;53.394;-6.294;2024-02-28T02:03:48;101064.59;;;15.87;8.94
64698;BME280;51124;53.394;-6.294;2024-02-28T02:06:16;101072.17;;;15.18;9.06
64698;BME280;51124;53.394;-6.294;2024-02-28T02:08:43;101088.53;;;16.37;8.90
64698;BME280;51124;53.394;-6.294;2024-02-28T02:11:11;101091.55;;;18.31;9.24
64698;BME280;51124;53.394;-6.294;2024-02-28T02:13:49;101089.00;;;17.90;9.70
64698;BME280;51124;53.394;-6.294;2024-02-28T02:16:06;101085.14;;;16.37;9.75
64698;BME280;51124;53.394;-6.294;2024-02-28T02:18:34;101080.48;;;18.94;9.69
64698;BME280;51124;53.394;-6.294;2024-02-28T02:21:04;101077.21;;;19.17;10.26
64698;BME280;51124;53.394;-6.294;2024-02-28T02:23:34;101083.22;;;19.24;10.63
64698;BME280;51124;53.394;-6.294;2024-02-28T02:26:01;101083.30;;;18.80;10.78
64698;BME280;51124;53.394;-6.294;2024-02-28T02:28:29;101078.72;;;18.50;10.96
64698;BME280;51124;53.394;-6.294;2024-02-28T02:30:57;101068.90;;;18.23;10.90
64698;BME280;51124;53.394;-6.294;2024-02-28T02:33:25;101066.05;;;18.64;11.20
64698;BME280;51124;53.394;-6.294;2024-02-28T02:35:53;101062.27;;;18.54;10.92
64698;BME280;51124;53.394;-6.294;2024-02-28T02:38:21;101054.07;;;17.96;11.19
64698;BME280;51124;53.394;-6.294;2024-02-28T02:40:50;101042.85;;;17.78;11.34
64698;BME280;51124;53.394;-6.294;2024-02-28T02:43:18;101030.54;;;17.99;11.48
64698;BME280;51124;53.394;-6.294;2024-02-28T02:45:47;101026.21;;;17.21;11.42
64698;BME280;51124;53.394;-6.294;2024-02-28T02:48:15;101013.35;;;18.18;11.34
64698;BME280;51124;53.394;-6.294;2024-02-28T02:50:42;101006.19;;;18.36;11.29
64698;BME280;51124;53.394;-6.294;2024-02-28T02:53:13;100998.14;;;17.82;11.48
64698;BME280;51124;53.394;-6.294;2024-02-28T02:55:40;100979.88;;;17.93;11.44
64698;BME280;51124;53.394;-6.294;2024-02-28T02:58:08;100973.69;;;18.16;11.19
64698;BME280;51124;53.394;-6.294;2024-02-28T03:00:36;100959.40;;;18.07;11.54
64698;BME280;51124;53.394;-6.294;2024-02-28T03:03:04;100950.41;;;18.47;11.37
64698;BME280;51124;53.394;-6.294;2024-02-28T03:05:32;100945.97;;;17.87;11.55
64698;BME280;51124;53.394;-6.294;2024-02-28T03:07:59;100936.05;;;17.97;11.48
64698;BME280;51124;53.394;-6.294;2024-02-28T03:10:27;100926.96;;;15.62;11.48
64698;BME280;51124;53.394;-6.294;2024-02-28T03:12:54;100915.09;;;16.12;10.90
64698;BME280;51124;53.394;-6.294;2024-02-28T03:15:22;100913.11;;;15.29;10.57
64698;BME280;51124;53.394;-6.294;2024-02-28T03:17:49;100909.80;;;15.39;10.23
64698;BME280;51124;53.394;-6.294;2024-02-28T03:20:17;100901.95;;;15.97;10.07
64698;BME280;51124;53.394;-6.294;2024-02-28T03:22:44;100906.98;;;16.15;9.99
64698;BME280;51124;53.394;-6.294;2024-02-28T03:25:12;100900.79;;;15.72;9.68
64698;BME280;51124;53.394;-6.294;2024-02-28T03:27:39;100892.78;;;15.96;9.47
64698;BME280;51124;53.394;-6.294;2024-02-28T03:30:07;100885.56;;;15.68;9.36
64698;BME280;51124;53.394;-6.294;2024-02-28T03:32:35;100883.81;;;16.01;9.32
64698;BME280;51124;53.394;-6.294;2024-02-28T03:35:02;100887.99;;;15.93;9.48
64698;BME280;51124;53.394;-6.294;2024-02-28T03:37:30;100882.22;;;15.41;9.29
64698;BME280;51124;53.394;-6.294;2024-02-28T03:39:57;100878.81;;;15.11;9.24
64698;BME280;51124;53.394;-6.294;2024-02-28T03:42:25;100880.89;;;15.77;9.14
64698;BME280;51124;53.394;-6.294;2024-02-28T03:44:52;100880.45;;;15.46;9.08
64698;BME280;51124;53.394;-6.294;2024-02-28T03:47:20;100876.88;;;15.16;8.94
64698;BME280;51124;53.394;-6.294;2024-02-28T03:49:47;100861.59;;;15.88;9.17
64698;BME280;51124;53.394;-6.294;2024-02-28T03:52:14;100849.63;;;15.59;8.93
64698;BME280;51124;53.394;-6.294;2024-02-28T03:54:44;100849.12;;;15.52;9.03
64698;BME280;51124;53.394;-6.294;2024-02-28T03:57:11;100850.68;;;15.84;8.99
64698;BME280;51124;53.394;-6.294;2024-02-28T03:59:40;100843.48;;;16.27;8.82
64698;BME280;51124;53.394;-6.294;2024-02-28T04:02:07;100833.52;;;15.82;8.89
64698;BME280;51124;53.394;-6.294;2024-02-28T04:04:35;100820.05;;;16.08;8.90
64698;BME280;51124;53.394;-6.294;2024-02-28T04:07:02;100816.82;;;15.97;8.92
64698;BME280;51124;53.394;-6.294;2024-02-28T04:09:29;100811.71;;;15.08;8.86
64698;BME280;51124;53.394;-6.294;2024-02-28T04:11:57;100817.18;;;15.85;8.92
64698;BME280;51124;53.394;-6.294;2024-02-28T04:14:24;100810.50;;;15.16;8.75
64698;BME280;51124;53.394;-6.294;2024-02-28T04:16:52;100809.82;;;16.11;8.74
64698;BME280;51124;53.394;-6.294;2024-02-28T04:19:19;100807.95;;;15.95;8.72
64698;BME280;51124;53.394;-6.294;2024-02-28T04:21:47;100802.40;;;15.74;8.82
64698;BME280;51124;53.394;-6.294;2024-02-28T04:24:14;100809.57;;;15.09;8.89
64698;BME280;51124;53.394;-6.294;2024-02-28T04:26:41;100808.94;;;16.00;8.84
64698;BME280;51124;53.394;-6.294;2024-02-28T04:29:09;100805.56;;;14.86;8.93
64698;BME280;51124;53.394;-6.294;2024-02-28T04:31:37;100793.66;;;16.01;8.83
64698;BME280;51124;53.394;-6.294;2024-02-28T04:34:05;100784.45;;;15.48;8.72
64698;BME280;51124;53.394;-6.294;2024-02-28T04:36:32;100778.82;;;15.91;8.70
64698;BME280;51124;53.394;-6.294;2024-02-28T04:38:59;100773.83;;;15.28;8.82
64698;BME280;51124;53.394;-6.294;2024-02-28T04:41:27;100761.68;;;14.91;8.86
64698;BME280;51124;53.394;-6.294;2024-02-28T04:43:54;100762.20;;;16.73;8.78
64698;BME280;51124;53.394;-6.294;2024-02-28T04:46:22;100762.63;;;15.58;8.92
64698;BME280;51124;53.394;-6.294;2024-02-28T04:48:49;100755.51;;;15.26;8.87
64698;BME280;51124;53.394;-6.294;2024-02-28T04:51:17;100759.28;;;15.34;8.90
64698;BME280;51124;53.394;-6.294;2024-02-28T04:53:45;100751.00;;;15.22;8.82
64698;BME280;51124;53.394;-6.294;2024-02-28T04:56:12;100740.81;;;16.18;8.82
64698;BME280;51124;53.394;-6.294;2024-02-28T04:58:39;100738.76;;;15.19;8.95
64698;BME280;51124;53.394;-6.294;2024-02-28T05:01:07;100735.72;;;15.39;8.90
64698;BME280;51124;53.394;-6.294;2024-02-28T05:03:34;100730.40;;;14.79;8.83
64698;BME280;51124;53.394;-6.294;2024-02-28T05:06:02;100721.36;;;15.83;8.74
64698;BME280;51124;53.394;-6.294;2024-02-28T05:08:29;100721.78;;;15.32;8.71
64698;BME280;51124;53.394;-6.294;2024-02-28T05:10:57;100720.69;;;15.98;8.69
64698;BME280;51124;53.394;-6.294;2024-02-28T05:13:24;100713.83;;;17.74;9.11
64698;BME280;51124;53.394;-6.294;2024-02-28T05:15:51;100711.25;;;18.23;9.26
64698;BME280;51124;53.394;-6.294;2024-02-28T05:18:19;100692.26;;;16.07;9.53
64698;BME280;51124;53.394;-6.294;2024-02-28T05:20:46;100683.64;;;15.87;9.40
64698;BME280;51124;53.394;-6.294;2024-02-28T05:23:14;100677.51;;;19.40;9.72
64698;BME280;51124;53.394;-6.294;2024-02-28T05:25:42;100670.57;;;18.93;10.08
64698;BME280;51124;53.394;-6.294;2024-02-28T05:28:11;100666.95;;;18.43;10.41
64698;BME280;51124;53.394;-6.294;2024-02-28T05:30:38;100665.35;;;18.23;10.51
64698;BME280;51124;53.394;-6.294;2024-02-28T05:33:06;100658.56;;;18.64;10.66
64698;BME280;51124;53.394;-6.294;2024-02-28T05:35:34;100646.25;;;18.46;10.63
64698;BME280;51124;53.394;-6.294;2024-02-28T05:38:02;100646.86;;;18.05;10.82
64698;BME280;51124;53.394;-6.294;2024-02-28T05:40:30;100646.66;;;18.49;10.78
64698;BME280;51124;53.394;-6.294;2024-02-28T05:42:58;100648.71;;;18.87;10.78
64698;BME280;51124;53.394;-6.294;2024-02-28T05:45:26;100642.80;;;18.12;10.87
64698;BME280;51124;53.394;-6.294;2024-02-28T05:47:53;100639.09;;;18.05;10.93
64698;BME280;51124;53.394;-6.294;2024-02-28T05:50:21;100640.39;;;18.08;11.05
64698;BME280;51124;53.394;-6.294;2024-02-28T05:52:49;100637.75;;;18.25;10.90
64698;BME280;51124;53.394;-6.294;2024-02-28T05:55:17;100642.28;;;18.87;10.85
64698;BME280;51124;53.394;-6.294;2024-02-28T05:57:45;100638.53;;;18.38;10.87
64698;BME280;51124;53.394;-6.294;2024-02-28T06:00:15;100638.63;;;18.54;10.95
64698;BME280;51124;53.394;-6.294;2024-02-28T06:02:43;100628.10;;;18.47;10.91
64698;BME280;51124;53.394;-6.294;2024-02-28T06:05:11;100622.53;;;17.29;11.09
64698;BME280;51124;53.394;-6.294;2024-02-28T06:07:39;100613.27;;;17.96;11.02
64698;BME280;51124;53.394;-6.294;2024-02-28T06:10:07;100616.01;;;18.30;10.94
64698;BME280;51124;53.394;-6.294;2024-02-28T06:12:35;100608.79;;;17.16;11.01
64698;BME280;51124;53.394;-6.294;2024-02-28T06:15:03;100598.75;;;15.91;10.53
64698;BME280;51124;53.394;-6.294;2024-02-28T06:17:31;100591.77;;;15.77;10.15
64698;BME280;51124;53.394;-6.294;2024-02-28T06:19:58;100585.81;;;16.41;9.84
64698;BME280;51124;53.394;-6.294;2024-02-28T06:22:26;100579.69;;;16.41;9.58
64698;BME280;51124;53.394;-6.294;2024-02-28T06:24:53;100573.84;;;16.82;9.68
64698;BME280;51124;53.394;-6.294;2024-02-28T06:27:20;100556.13;;;15.63;9.54
64698;BME280;51124;53.394;-6.294;2024-02-28T06:29:48;100530.42;;;15.85;9.33
64698;BME280;51124;53.394;-6.294;2024-02-28T06:32:15;100510.00;;;16.01;9.19
64698;BME280;51124;53.394;-6.294;2024-02-28T06:34:43;100497.19;;;16.57;9.24
64698;BME280;51124;53.394;-6.294;2024-02-28T06:37:10;100487.16;;;15.96;9.17
64698;BME280;51124;53.394;-6.294;2024-02-28T06:39:38;100505.15;;;16.05;8.97
64698;BME280;51124;53.394;-6.294;2024-02-28T06:42:08;100499.02;;;15.56;9.03
64698;BME280;51124;53.394;-6.294;2024-02-28T06:44:41;100500.60;;;15.24;8.94
64698;BME280;51124;53.394;-6.294;2024-02-28T06:47:08;100510.88;;;16.33;8.86
64698;BME280;51124;53.394;-6.294;2024-02-28T06:49:35;100505.09;;;15.14;8.92
64698;BME280;51124;53.394;-6.294;2024-02-28T06:52:03;100496.90;;;15.75;8.77
64698;BME280;51124;53.394;-6.294;2024-02-28T06:54:31;100494.01;;;15.61;8.77
64698;BME280;51124;53.394;-6.294;2024-02-28T06:56:58;100488.04;;;15.62;8.65
64698;BME280;51124;53.394;-6.294;2024-02-28T06:59:26;100489.51;;;16.22;8.64
64698;BME280;51124;53.394;-6.294;2024-02-28T07:01:53;100492.10;;;16.56;8.48
64698;BME280;51124;53.394;-6.294;2024-02-28T07:04:20;100490.30;;;16.21;8.50
64698;BME280;51124;53.394;-6.294;2024-02-28T07:06:48;100494.91;;;15.37;8.80
64698;BME280;51124;53.394;-6.294;2024-02-28T07:09:15;100497.44;;;16.06;8.73
64698;BME280;51124;53.394;-6.294;2024-02-28T07:11:43;100479.32;;;16.32;8.55
64698;BME280;51124;53.394;-6.294;2024-02-28T07:14:10;100465.43;;;16.10;8.58
64698;BME280;51124;53.394;-6.294;2024-02-28T07:16:38;100473.40;;;15.06;8.53
64698;BME280;51124;53.394;-6.294;2024-02-28T07:19:06;100479.52;;;15.55;8.53
64698;BME280;51124;53.394;-6.294;2024-02-28T07:21:35;100479.62;;;15.77;8.52
64698;BME280;51124;53.394;-6.294;2024-02-28T07:24:02;100476.57;;;15.23;8.57
64698;BME280;51124;53.394;-6.294;2024-02-28T07:26:30;100468.43;;;15.80;8.50
64698;BME280;51124;53.394;-6.294;2024-02-28T07:28:57;100452.80;;;16.50;8.46
64698;BME280;51124;53.394;-6.294;2024-02-28T07:31:25;100446.56;;;16.48;8.52
64698;BME280;51124;53.394;-6.294;2024-02-28T07:33:52;100439.64;;;15.38;8.63
64698;BME280;51124;53.394;-6.294;2024-02-28T07:36:20;100443.62;;;15.77;8.64
64698;BME280;51124;53.394;-6.294;2024-02-28T07:38:47;100453.60;;;15.85;8.70
64698;BME280;51124;53.394;-6.294;2024-02-28T07:41:14;100454.71;;;16.94;8.37
64698;BME280;51124;53.394;-6.294;2024-02-28T07:43:44;100446.16;;;16.34;8.43
64698;BME280;51124;53.394;-6.294;2024-02-28T07:46:12;100455.79;;;15.91;8.57
64698;BME280;51124;53.394;-6.294;2024-02-28T07:48:39;100458.22;;;17.00;8.38
64698;BME280;51124;53.394;-6.294;2024-02-28T07:51:07;100458.96;;;15.89;8.48
64698;BME280;51124;53.394;-6.294;2024-02-28T07:53:35;100454.88;;;16.58;8.30
64698;BME280;51124;53.394;-6.294;2024-02-28T07:56:03;100443.35;;;16.65;8.27
64698;BME280;51124;53.394;-6.294;2024-02-28T07:58:30;100438.96;;;17.16;8.17
64698;BME280;51124;53.394;-6.294;2024-02-28T08:00:58;100438.43;;;18.36;8.35
64698;BME280;51124;53.394;-6.294;2024-02-28T08:03:26;100435.95;;;16.93;8.84
64698;BME280;51124;53.394;-6.294;2024-02-28T08:05:53;100427.05;;;17.58;8.97
64698;BME280;51124;53.394;-6.294;2024-02-28T08:08:21;100424.95;;;16.99;9.13
64698;BME280;51124;53.394;-6.294;2024-02-28T08:10:48;100421.82;;;16.59;9.48
64698;BME280;51124;53.394;-6.294;2024-02-28T08:13:16;100413.88;;;17.34;9.28
64698;BME280;51124;53.394;-6.294;2024-02-28T08:15:43;100415.87;;;17.56;9.24
64698;BME280;51124;53.394;-6.294;2024-02-28T08:18:10;100409.40;;;19.73;9.73
64698;BME280;51124;53.394;-6.294;2024-02-28T08:20:38;100409.16;;;18.57;10.53
64698;BME280;51124;53.394;-6.294;2024-02-28T08:23:06;100409.25;;;18.44;10.69
64698;BME280;51124;53.394;-6.294;2024-02-28T08:25:33;100403.26;;;17.37;10.51
64698;BME280;51124;53.394;-6.294;2024-02-28T08:28:01;100402.76;;;20.44;9.98
64698;BME280;51124;53.394;-6.294;2024-02-28T08:30:29;100404.50;;;20.73;10.18
64698;BME280;51124;53.394;-6.294;2024-02-28T08:33:00;100401.03;;;20.55;10.30
64698;BME280;51124;53.394;-6.294;2024-02-28T08:35:27;100395.56;;;19.93;10.94
64698;BME280;51124;53.394;-6.294;2024-02-28T08:37:55;100391.85;;;20.13;11.14
64698;BME280;51124;53.394;-6.294;2024-02-28T08:40:23;100394.85;;;18.99;11.47
64698;BME280;51124;53.394;-6.294;2024-02-28T08:42:51;100387.70;;;19.26;11.60
64698;BME280;51124;53.394;-6.294;2024-02-28T08:45:18;100389.86;;;19.23;11.91
64698;BME280;51124;53.394;-6.294;2024-02-28T08:47:46;100384.88;;;18.90;11.84
64698;BME280;51124;53.394;-6.294;2024-02-28T08:50:14;100387.64;;;19.48;11.84
64698;BME280;51124;53.394;-6.294;2024-02-28T08:52:42;100384.60;;;19.32;11.74
64698;BME280;51124;53.394;-6.294;2024-02-28T08:55:10;100387.19;;;18.81;12.01
64698;BME280;51124;53.394;-6.294;2024-02-28T08:57:38;100393.56;;;19.14;12.01
64698;BME280;51124;53.394;-6.294;2024-02-28T09:00:07;100389.69;;;19.63;11.80
64698;BME280;51124;53.394;-6.294;2024-02-28T09:02:35;100385.73;;;18.73;12.15
64698;BME280;51124;53.394;-6.294;2024-02-28T09:05:03;100370.66;;;18.92;12.18
64698;BME280;51124;53.394;-6.294;2024-02-28T09:07:31;100372.56;;;19.29;11.94
64698;BME280;51124;53.394;-6.294;2024-02-28T09:09:59;100375.54;;;19.76;11.83
64698;BME280;51124;53.394;-6.294;2024-02-28T09:12:26;100369.98;;;18.50;12.28
64698;BME280;51124;53.394;-6.294;2024-02-28T09:14:54;100362.13;;;18.40;12.04
64698;BME280;51124;53.394;-6.294;2024-02-28T09:17:22;100367.77;;;19.53;11.84
64698;BME280;51124;53.394;-6.294;2024-02-28T09:19:49;100363.33;;;17.93;11.72
64698;BME280;51124;53.394;-6.294;2024-02-28T09:22:17;100362.03;;;17.40;11.43
64698;BME280;51124;53.394;-6.294;2024-02-28T09:24:44;100365.08;;;16.79;11.29
64698;BME280;51124;53.394;-6.294;2024-02-28T09:27:12;100356.68;;;17.06;10.84
64698;BME280;51124;53.394;-6.294;2024-02-28T09:29:39;100351.20;;;17.80;10.33
64698;BME280;51124;53.394;-6.294;2024-02-28T09:32:07;100343.63;;;18.45;10.29
64698;BME280;51124;53.394;-6.294;2024-02-28T09:34:34;100337.27;;;16.27;10.22
64698;BME280;51124;53.394;-6.294;2024-02-28T09:37:02;100344.48;;;17.34;9.92
64698;BME280;51124;53.394;-6.294;2024-02-28T09:39:29;100349.51;;;17.49;9.71
64698;BME280;51124;53.394;-6.294;2024-02-28T09:41:56;100345.33;;;17.28;9.65
64698;BME280;51124;53.394;-6.294;2024-02-28T09:44:24;100344.57;;;17.57;9.53
64698;BME280;51124;53.394;-6.294;2024-02-28T09:46:53;100341.45;;;17.19;9.50
64698;BME280;51124;53.394;-6.294;2024-02-28T09:49:21;100340.76;;;17.71;9.54
64698;BME280;51124;53.394;-6.294;2024-02-28T09:51:51;100332.23;;;17.68;9.58
64698;BME280;51124;53.394;-6.294;2024-02-28T09:54:18;100329.81;;;18.22;9.28
64698;BME280;51124;53.394;-6.294;2024-02-28T09:56:46;100334.02;;;18.13;9.19
64698;BME280;51124;53.394;-6.294;2024-02-28T09:59:14;100333.94;;;19.35;9.09
64698;BME280;51124;53.394;-6.294;2024-02-28T10:01:47;100325.72;;;18.07;9.04
64698;BME280;51124;53.394;-6.294;2024-02-28T10:04:16;100308.62;;;19.17;8.36
64698;BME280;51124;53.394;-6.294;2024-02-28T10:06:44;100312.82;;;19.74;8.13
64698;BME280;51124;53.394;-6.294;2024-02-28T10:09:11;100307.83;;;20.07;7.91
64698;BME280;51124;53.394;-6.294;2024-02-28T10:11:41;100303.34;;;19.31;7.63
64698;BME280;51124;53.394;-6.294;2024-02-28T10:14:08;100295.53;;;20.20;7.62
64698;BME280;51124;53.394;-6.294;2024-02-28T10:16:36;100299.46;;;19.75;7.70
64698;BME280;51124;53.394;-6.294;2024-02-28T10:19:04;100303.13;;;19.12;7.85
64698;BME280;51124;53.394;-6.294;2024-02-28T10:21:32;100303.71;;;17.90;8.25
64698;BME280;51124;53.394;-6.294;2024-02-28T10:24:00;100292.75;;;17.94;8.20
64698;BME280;51124;53.394;-6.294;2024-02-28T10:26:27;100291.59;;;17.48;8.26
64698;BME280;51124;53.394;-6.294;2024-02-28T10:28:55;100290.59;;;17.91;8.37
64698;BME280;51124;53.394;-6.294;2024-02-28T10:31:23;100291.00;;;17.36;8.41
64698;BME280;51124;53.394;-6.294;2024-02-28T10:33:51;100289.68;;;17.17;8.39
64698;BME280;51124;53.394;-6.294;2024-02-28T10:36:19;100275.14;;;19.55;7.99
64698;BME280;51124;53.394;-6.294;2024-02-28T10:38:47;100276.73;;;19.04;8.22
64698;BME280;51124;53.394;-6.294;2024-02-28T10:41:15;100281.40;;;17.69;8.28
64698;BME280;51124;53.394;-6.294;2024-02-28T10:43:44;100270.73;;;19.84;7.85
64698;BME280;51124;53.394;-6.294;2024-02-28T10:46:12;100260.45;;;18.86;7.88
64698;BME280;51124;53.394;-6.294;2024-02-28T10:48:41;100256.03;;;19.98;7.70
64698;BME280;51124;53.394;-6.294;2024-02-28T10:51:10;100266.84;;;19.56;7.79
64698;BME280;51124;53.394;-6.294;2024-02-28T10:53:44;100258.15;;;20.29;7.67
64698;BME280;51124;53.394;-6.294;2024-02-28T10:56:17;100259.47;;;21.21;7.71
64698;BME280;51124;53.394;-6.294;2024-02-28T10:58:52;100255.74;;;20.98;7.68
64698;BME280;51124;53.394;-6.294;2024-02-28T11:01:19;100267.05;;;18.49;8.00
64698;BME280;51124;53.394;-6.294;2024-02-28T11:03:49;100252.04;;;19.69;7.95
64698;BME280;51124;53.394;-6.294;2024-02-28T11:06:19;100256.11;;;19.49;7.67
64698;BME280;51124;53.394;-6.294;2024-02-28T11:08:48;100247.81;;;21.12;7.10
64698;BME280;51124;53.394;-6.294;2024-02-28T11:11:16;100236.42;;;21.14;7.18
64698;BME280;51124;53.394;-6.294;2024-02-28T11:13:53;100237.75;;;19.36;7.23
64698;BME280;51124;53.394;-6.294;2024-02-28T11:16:11;100240.72;;;19.58;7.27
64698;BME280;51124;53.394;-6.294;2024-02-28T11:18:49;100238.54;;;19.42;7.49
64698;BME280;51124;53.394;-6.294;2024-02-28T11:21:17;100239.80;;;19.71;7.46
64698;BME280;51124;53.394;-6.294;2024-02-28T11:23:37;100239.40;;;19.48;7.72
64698;BME280;51124;53.394;-6.294;2024-02-28T11:26:05;100246.54;;;22.14;7.72
64698;BME280;51124;53.394;-6.294;2024-02-28T11:28:32;100245.20;;;22.85;7.90
64698;BME280;51124;53.394;-6.294;2024-02-28T11:31:00;100238.85;;;21.41;8.54
64698;BME280;51124;53.394;-6.294;2024-02-28T11:33:28;100246.92;;;20.90;8.33
64698;BME280;51124;53.394;-6.294;2024-02-28T11:35:57;100245.14;;;24.24;8.31
64698;BME280;51124;53.394;-6.294;2024-02-28T11:38:26;100254.01;;;23.58;8.66
64698;BME280;51124;53.394;-6.294;2024-02-28T11:40:54;100260.28;;;22.88;9.13
64698;BME280;51124;53.394;-6.294;2024-02-28T11:43:22;100252.62;;;22.02;9.68
64698;BME280;51124;53.394;-6.294;2024-02-28T11:45:51;100241.21;;;22.20;9.66
64698;BME280;51124;53.394;-6.294;2024-02-28T11:48:18;100238.55;;;21.70;9.92
64698;BME280;51124;53.394;-6.294;2024-02-28T11:50:46;100235.39;;;21.71;9.98
64698;BME280;51124;53.394;-6.294;2024-02-28T11:53:14;100233.22;;;21.84;10.07
64698;BME280;51124;53.394;-6.294;2024-02-28T11:55:42;100226.84;;;22.60;9.80
64698;BME280;51124;53.394;-6.294;2024-02-28T11:58:10;100215.86;;;21.35;10.17
64698;BME280;51124;53.394;-6.294;2024-02-28T12:00:48;100222.98;;;21.59;10.11
64698;BME280;51124;53.394;-6.294;2024-02-28T12:03:07;100216.73;;;22.70;9.90
64698;BME280;51124;53.394;-6.294;2024-02-28T12:05:37;100210.13;;;23.09;9.69
64698;BME280;51124;53.394;-6.294;2024-02-28T12:08:06;100211.07;;;21.74;10.02
64698;BME280;51124;53.394;-6.294;2024-02-28T12:10:34;100200.92;;;22.75;9.83
64698;BME280;51124;53.394;-6.294;2024-02-28T12:13:03;100199.06;;;21.88;10.05
64698;BME280;51124;53.394;-6.294;2024-02-28T12:15:31;100203.45;;;22.93;9.75
64698;BME280;51124;53.394;-6.294;2024-02-28T12:17:59;100193.67;;;23.34;9.63
64698;BME280;51124;53.394;-6.294;2024-02-28T12:20:30;100202.28;;;23.11;9.71
64698;BME280;51124;53.394;-6.294;2024-02-28T12:23:02;100196.97;;;23.21;9.74
64698;BME280;51124;53.394;-6.294;2024-02-28T12:25:33;100192.31;;;22.05;9.71
64698;BME280;51124;53.394;-6.294;2024-02-28T12:28:01;100194.20;;;21.26;9.58
64698;BME280;51124;53.394;-6.294;2024-02-28T12:30:28;100181.79;;;20.57;9.20
64698;BME280;51124;53.394;-6.294;2024-02-28T12:32:56;100170.50;;;20.57;8.91
64698;BME280;51124;53.394;-6.294;2024-02-28T12:35:23;100170.11;;;20.58;8.64
64698;BME280;51124;53.394;-6.294;2024-02-28T12:37:51;100165.79;;;20.63;8.50
64698;BME280;51124;53.394;-6.294;2024-02-28T12:40:18;100154.03;;;21.02;8.56
64698;BME280;51124;53.394;-6.294;2024-02-28T12:42:46;100158.88;;;21.01;8.39
64698;BME280;51124;53.394;-6.294;2024-02-28T12:45:13;100146.37;;;20.91;8.08
64698;BME280;51124;53.394;-6.294;2024-02-28T12:47:41;100137.56;;;21.15;7.93
64698;BME280;51124;53.394;-6.294;2024-02-28T12:50:09;100137.41;;;21.22;7.88